createdAt,value
2018-12-26T00:01:28.435Z,-0.80
2018-12-26T00:04:09.231Z,-0.80
2018-12-26T00:06:51.018Z,-0.90
2018-12-26T00:09:32.048Z,-0.90
2018-12-26T00:12:13.027Z,-0.90
2018-12-26T00:14:54.036Z,-0.90
2018-12-26T00:17:35.071Z,-0.90
2018-12-26T00:20:16.259Z,-1.00
2018-12-26T00:22:58.115Z,-1.00
2018-12-26T00:25:39.811Z,-1.10
2018-12-26T00:28:20.679Z,-1.10
2018-12-26T00:31:02.385Z,-1.10
2018-12-26T00:33:43.330Z,-1.20
2018-12-26T00:36:24.534Z,-1.20
2018-12-26T00:39:06.123Z,-1.20
2018-12-26T00:41:47.791Z,-1.20
2018-12-26T00:44:28.589Z,-1.20
2018-12-26T00:47:10.187Z,-1.20
2018-12-26T00:49:51.430Z,-1.20
2018-12-26T00:52:32.582Z,-1.20
2018-12-26T00:55:13.555Z,-1.20
2018-12-26T00:57:54.706Z,-1.10
2018-12-26T01:00:35.675Z,-1.10
2018-12-26T01:03:17.395Z,-1.00
2018-12-26T01:05:58.904Z,-1.00
2018-12-26T01:08:39.931Z,-1.00
2018-12-26T01:11:20.967Z,-1.00
2018-12-26T01:14:01.959Z,-1.00
2018-12-26T01:16:42.943Z,-1.00
2018-12-26T01:19:24.024Z,-1.10
2018-12-26T01:22:04.927Z,-1.10
2018-12-26T01:24:45.843Z,-1.20
2018-12-26T01:27:27.142Z,-1.20
2018-12-26T01:30:08.123Z,-1.30
2018-12-26T01:32:49.342Z,-1.30
2018-12-26T01:35:30.487Z,-1.30
2018-12-26T01:38:12.208Z,-1.40
2018-12-26T01:40:53.451Z,-1.40
2018-12-26T01:43:34.486Z,-1.50
2018-12-26T01:46:15.416Z,-1.50
2018-12-26T01:48:56.587Z,-1.50
2018-12-26T01:51:37.638Z,-1.60
2018-12-26T01:54:18.440Z,-1.70
2018-12-26T01:56:59.459Z,-1.70
2018-12-26T01:59:40.469Z,-1.70
2018-12-26T02:02:21.659Z,-1.70
2018-12-26T02:05:02.596Z,-1.70
2018-12-26T02:07:44.439Z,-1.70
2018-12-26T02:10:25.392Z,-1.80
2018-12-26T02:13:07.207Z,-1.70
2018-12-26T02:15:48.988Z,-1.80
2018-12-26T02:18:30.047Z,-1.80
2018-12-26T02:21:10.983Z,-1.80
2018-12-26T02:23:51.980Z,-1.80
2018-12-26T02:26:36.546Z,-1.80
2018-12-26T02:29:16.255Z,-1.80
2018-12-26T02:31:57.230Z,-1.80
2018-12-26T02:34:38.249Z,-1.80
2018-12-26T02:37:19.973Z,-1.90
2018-12-26T02:40:00.955Z,-1.90
2018-12-26T02:42:42.070Z,-2.00
2018-12-26T02:45:23.608Z,-2.00
2018-12-26T02:48:04.715Z,-2.10
2018-12-26T02:50:45.794Z,-2.10
2018-12-26T02:53:26.611Z,-2.10
2018-12-26T02:56:08.451Z,-2.10
2018-12-26T02:58:50.108Z,-2.20
2018-12-26T03:01:31.780Z,-2.20
2018-12-26T03:04:12.875Z,-2.20
2018-12-26T03:06:54.384Z,-2.20
2018-12-26T03:09:36.172Z,-2.20
2018-12-26T03:12:17.059Z,-2.20
2018-12-26T03:14:57.860Z,-2.20
2018-12-26T03:17:39.623Z,-2.30
2018-12-26T03:20:20.521Z,-2.30
2018-12-26T03:23:01.384Z,-2.40
2018-12-26T03:25:42.202Z,-2.50
2018-12-26T03:28:23.536Z,-2.50
2018-12-26T03:31:04.460Z,-2.50
2018-12-26T03:33:45.667Z,-2.60
2018-12-26T03:36:26.850Z,-2.60
2018-12-26T03:39:07.730Z,-2.60
2018-12-26T03:41:48.683Z,-2.60
2018-12-26T03:44:30.230Z,-2.60
2018-12-26T03:47:11.060Z,-2.50
2018-12-26T03:49:51.861Z,-2.50
2018-12-26T03:52:33.620Z,-2.60
2018-12-26T03:55:15.356Z,-2.60
2018-12-26T03:57:55.229Z,-2.60
2018-12-26T04:00:43.983Z,-2.70
2018-12-26T04:03:32.759Z,-2.70
2018-12-26T04:06:21.515Z,-2.80
2018-12-26T04:09:10.287Z,-2.90
2018-12-26T04:11:59.047Z,-2.90
2018-12-26T04:14:47.832Z,-2.90
2018-12-26T04:17:36.588Z,-2.90
2018-12-26T04:20:25.662Z,-2.90
2018-12-26T04:23:14.619Z,-2.90
2018-12-26T04:26:03.384Z,-2.80
2018-12-26T04:28:52.144Z,-2.90
2018-12-26T04:31:40.890Z,-2.90
2018-12-26T04:34:29.645Z,-2.90
2018-12-26T04:37:18.382Z,-2.90
2018-12-26T04:40:07.088Z,-3.00
2018-12-26T04:42:55.819Z,-3.00
2018-12-26T04:45:44.578Z,-3.00
2018-12-26T04:48:33.332Z,-3.10
2018-12-26T04:51:22.095Z,-3.10
2018-12-26T04:54:10.829Z,-3.10
2018-12-26T04:56:59.590Z,-3.00
2018-12-26T04:59:40.899Z,-3.00
2018-12-26T05:02:22.643Z,-3.00
2018-12-26T05:05:03.965Z,-2.90
2018-12-26T05:07:44.953Z,-2.90
2018-12-26T05:10:25.923Z,-3.00
2018-12-26T05:13:06.694Z,-3.20
2018-12-26T05:15:48.248Z,-3.20
2018-12-26T05:18:18.027Z,-3.30
2018-12-26T05:20:47.803Z,-3.30
2018-12-26T05:23:17.567Z,-3.30
2018-12-26T05:25:47.363Z,-3.30
2018-12-26T05:28:17.123Z,-3.30
2018-12-26T05:30:46.944Z,-3.30
2018-12-26T05:33:16.698Z,-3.40
2018-12-26T05:35:46.419Z,-3.40
2018-12-26T05:38:16.178Z,-3.40
2018-12-26T05:40:45.979Z,-3.40
2018-12-26T05:43:15.734Z,-3.40
2018-12-26T05:45:45.539Z,-3.40
2018-12-26T05:48:15.304Z,-3.30
2018-12-26T05:50:45.063Z,-3.30
2018-12-26T05:53:14.846Z,-3.30
2018-12-26T05:55:44.691Z,-3.40
2018-12-26T05:58:14.503Z,-3.50
2018-12-26T06:00:44.262Z,-3.50
2018-12-26T06:03:14.054Z,-3.40
2018-12-26T06:05:43.814Z,-3.30
2018-12-26T06:08:13.598Z,-3.30
2018-12-26T06:10:43.365Z,-3.20
2018-12-26T06:13:13.146Z,-3.20
2018-12-26T06:15:42.907Z,-3.10
2018-12-26T06:18:12.795Z,-3.10
2018-12-26T06:20:42.562Z,-3.20
2018-12-26T06:23:12.339Z,-3.10
2018-12-26T06:25:42.106Z,-3.10
2018-12-26T06:28:11.879Z,-3.20
2018-12-26T06:30:41.657Z,-3.30
2018-12-26T06:33:11.450Z,-3.30
2018-12-26T06:35:41.213Z,-3.30
2018-12-26T06:38:10.966Z,-3.20
2018-12-26T06:40:40.754Z,-3.10
2018-12-26T06:43:10.519Z,-3.10
2018-12-26T06:45:40.309Z,-3.00
2018-12-26T06:48:10.070Z,-3.00
2018-12-26T06:50:39.868Z,-2.90
2018-12-26T06:53:09.623Z,-2.90
2018-12-26T06:55:39.408Z,-2.90
2018-12-26T06:58:09.228Z,-2.90
2018-12-26T07:00:39.039Z,-2.90
2018-12-26T07:03:08.798Z,-2.90
2018-12-26T07:05:38.639Z,-2.90
2018-12-26T07:08:08.399Z,-2.90
2018-12-26T07:10:38.190Z,-2.90
2018-12-26T07:13:07.951Z,-2.90
2018-12-26T07:15:37.731Z,-2.80
2018-12-26T07:18:07.498Z,-2.80
2018-12-26T07:20:37.279Z,-2.80
2018-12-26T07:23:07.042Z,-2.80
2018-12-26T07:25:36.831Z,-2.70
2018-12-26T07:28:10.908Z,-2.70
2018-12-26T07:30:40.614Z,-2.60
2018-12-26T07:33:10.383Z,-2.60
2018-12-26T07:35:40.176Z,-2.50
2018-12-26T07:38:09.932Z,-2.30
2018-12-26T07:40:39.762Z,-2.30
2018-12-26T07:43:09.554Z,-2.20
2018-12-26T07:45:39.379Z,-2.20
2018-12-26T07:48:09.367Z,-2.20
2018-12-26T07:50:39.341Z,-2.10
2018-12-26T07:53:09.350Z,-2.10
2018-12-26T07:55:39.314Z,-2.00
2018-12-26T07:58:17.404Z,-1.80
2018-12-26T08:00:40.931Z,-1.70
2018-12-26T08:03:10.951Z,-1.50
2018-12-26T08:05:40.920Z,-1.40
2018-12-26T08:08:10.925Z,-1.40
2018-12-26T08:10:40.813Z,-1.30
2018-12-26T08:13:10.741Z,-1.30
2018-12-26T08:15:40.645Z,-1.20
2018-12-26T08:18:10.408Z,-1.10
2018-12-26T08:20:40.175Z,-1.00
2018-12-26T08:23:10.203Z,-1.00
2018-12-26T08:25:40.181Z,-1.00
2018-12-26T08:28:10.131Z,-0.90
2018-12-26T08:30:40.065Z,-0.70
2018-12-26T08:33:09.794Z,-0.50
2018-12-26T08:35:39.563Z,-0.50
2018-12-26T08:38:09.351Z,-0.40
2018-12-26T08:40:39.155Z,-0.40
2018-12-26T08:43:08.936Z,-0.40
2018-12-26T08:45:38.707Z,-0.30
2018-12-26T08:48:08.511Z,-0.10
2018-12-26T08:50:38.284Z,0.00
2018-12-26T08:53:08.052Z,0.10
2018-12-26T08:55:37.759Z,0.20
2018-12-26T08:58:07.510Z,0.10
2018-12-26T09:00:37.315Z,0.20
2018-12-26T09:03:07.079Z,0.20
2018-12-26T09:05:36.863Z,0.20
2018-12-26T09:08:06.623Z,0.30
2018-12-26T09:10:36.479Z,0.30
2018-12-26T09:13:06.230Z,0.30
2018-12-26T09:15:36.006Z,0.20
2018-12-26T09:18:05.770Z,0.30
2018-12-26T09:20:35.560Z,0.30
2018-12-26T09:23:05.324Z,0.40
2018-12-26T09:25:35.048Z,0.50
2018-12-26T09:28:04.799Z,0.50
2018-12-26T09:30:34.582Z,0.60
2018-12-26T09:33:04.351Z,0.60
2018-12-26T09:35:34.139Z,0.60
2018-12-26T09:38:03.903Z,0.60
2018-12-26T09:40:33.688Z,0.50
2018-12-26T09:43:03.447Z,0.50
2018-12-26T09:45:33.230Z,0.50
2018-12-26T09:48:02.982Z,0.50
2018-12-26T09:50:32.767Z,0.50
2018-12-26T09:53:02.531Z,0.50
2018-12-26T09:55:32.315Z,0.60
2018-12-26T09:58:02.071Z,0.70
2018-12-26T10:00:31.920Z,0.80
2018-12-26T10:03:01.678Z,1.00
2018-12-26T10:05:31.447Z,1.10
2018-12-26T10:08:01.243Z,1.10
2018-12-26T10:10:31.004Z,1.20
2018-12-26T10:13:00.791Z,1.30
2018-12-26T10:15:30.571Z,2.10
2018-12-26T10:18:00.352Z,3.00
2018-12-26T10:20:30.122Z,3.60
2018-12-26T10:22:59.895Z,4.00
2018-12-26T10:25:29.651Z,5.00
2018-12-26T10:27:59.422Z,6.30
2018-12-26T10:30:29.187Z,7.50
2018-12-26T10:32:59.034Z,7.60
2018-12-26T10:35:28.727Z,7.00
2018-12-26T10:40:32.715Z,5.90
2018-12-26T10:43:14.099Z,4.00
2018-12-26T10:45:55.471Z,3.10
2018-12-26T10:48:36.731Z,2.70
2018-12-26T10:51:17.463Z,2.40
2018-12-26T10:53:59.009Z,2.30
2018-12-26T10:56:40.575Z,2.20
2018-12-26T10:59:21.334Z,2.30
2018-12-26T11:02:02.883Z,2.30
2018-12-26T11:04:43.627Z,2.50
2018-12-26T11:07:24.287Z,2.50
2018-12-26T11:10:05.451Z,2.70
2018-12-26T11:12:46.984Z,2.80
2018-12-26T11:15:27.843Z,3.00
2018-12-26T11:18:08.812Z,2.90
2018-12-26T11:20:49.636Z,2.80
2018-12-26T11:23:30.444Z,2.60
2018-12-26T11:26:11.067Z,2.50
2018-12-26T11:28:51.901Z,2.50
2018-12-26T11:31:33.396Z,2.50
2018-12-26T11:34:12.875Z,2.60
2018-12-26T11:37:01.284Z,2.60
2018-12-26T11:39:49.750Z,2.60
2018-12-26T11:42:38.158Z,2.40
2018-12-26T11:45:26.591Z,2.40
2018-12-26T11:48:14.999Z,2.40
2018-12-26T11:51:03.431Z,2.40
2018-12-26T11:53:51.851Z,2.30
2018-12-26T11:56:40.278Z,2.20
2018-12-26T11:59:27.164Z,2.20
2018-12-26T12:02:03.762Z,2.20
2018-12-26T12:04:45.183Z,2.20
2018-12-26T12:07:26.527Z,2.20
2018-12-26T12:10:07.160Z,2.20
2018-12-26T12:12:47.911Z,2.20
2018-12-26T12:15:29.423Z,2.20
2018-12-26T12:18:10.303Z,2.10
2018-12-26T12:20:51.135Z,2.10
2018-12-26T12:23:32.527Z,2.10
2018-12-26T12:26:13.188Z,2.00
2018-12-26T12:28:52.711Z,2.10
2018-12-26T12:31:41.135Z,2.10
2018-12-26T12:34:29.547Z,2.10
2018-12-26T12:37:18.085Z,2.10
2018-12-26T12:40:07.570Z,2.20
2018-12-26T12:42:56.007Z,2.30
2018-12-26T12:45:44.463Z,2.30
2018-12-26T12:48:32.906Z,2.30
2018-12-26T12:51:21.322Z,2.20
2018-12-26T12:54:09.751Z,2.10
2018-12-26T12:56:58.187Z,2.10
2018-12-26T12:59:44.720Z,2.20
2018-12-26T13:02:22.511Z,2.20
2018-12-26T13:05:04.079Z,2.20
2018-12-26T13:07:45.639Z,2.20
2018-12-26T13:10:26.371Z,2.20
2018-12-26T13:13:07.041Z,2.20
2018-12-26T13:15:48.463Z,2.20
2018-12-26T13:18:29.823Z,2.20
2018-12-26T13:21:11.029Z,2.30
2018-12-26T13:23:52.416Z,2.40
2018-12-26T13:26:33.744Z,2.40
2018-12-26T13:29:14.511Z,2.50
2018-12-26T13:31:55.179Z,2.50
2018-12-26T13:34:36.366Z,2.40
2018-12-26T13:37:17.746Z,2.40
2018-12-26T13:39:58.434Z,2.40
2018-12-26T13:42:39.779Z,2.50
2018-12-26T13:45:21.083Z,2.50
2018-12-26T13:48:01.719Z,2.60
2018-12-26T13:50:42.481Z,2.60
2018-12-26T13:53:23.174Z,2.60
2018-12-26T13:56:04.493Z,2.60
2018-12-26T13:58:45.938Z,2.50
2018-12-26T14:01:26.862Z,2.40
2018-12-26T14:04:07.706Z,2.40
2018-12-26T14:06:49.215Z,2.40
2018-12-26T14:09:30.651Z,2.50
2018-12-26T14:12:11.462Z,2.40
2018-12-26T14:14:52.882Z,2.40
2018-12-26T14:17:34.291Z,2.40
2018-12-26T14:20:15.862Z,2.40
2018-12-26T14:22:56.791Z,2.30
2018-12-26T14:25:38.259Z,2.30
2018-12-26T14:28:19.727Z,2.30
2018-12-26T14:31:01.247Z,2.30
2018-12-26T14:33:42.826Z,2.30
2018-12-26T14:36:24.267Z,2.20
2018-12-26T14:39:05.554Z,2.20
2018-12-26T14:41:47.043Z,2.10
2018-12-26T14:44:28.399Z,2.10
2018-12-26T14:47:09.554Z,2.10
2018-12-26T14:49:51.126Z,2.00
2018-12-26T14:52:31.794Z,2.00
2018-12-26T14:55:13.195Z,2.00
2018-12-26T14:57:54.184Z,2.00
2018-12-26T15:00:35.383Z,2.00
2018-12-26T15:03:16.191Z,2.00
2018-12-26T15:05:57.307Z,1.90
2018-12-26T15:08:38.463Z,1.90
2018-12-26T15:11:19.839Z,1.90
2018-12-26T15:14:00.594Z,1.90
2018-12-26T15:16:42.039Z,1.90
2018-12-26T15:19:23.597Z,1.90
2018-12-26T15:22:04.846Z,1.80
2018-12-26T15:24:45.467Z,1.80
2018-12-26T15:27:26.535Z,1.80
2018-12-26T15:30:07.299Z,1.80
2018-12-26T15:32:48.291Z,1.80
2018-12-26T15:35:29.238Z,1.70
2018-12-26T15:38:10.390Z,1.70
2018-12-26T15:40:51.680Z,1.70
2018-12-26T15:43:32.751Z,1.70
2018-12-26T15:46:13.519Z,1.70
2018-12-26T15:48:54.263Z,1.70
2018-12-26T15:51:35.715Z,1.70
2018-12-26T15:54:17.225Z,1.70
2018-12-26T15:56:58.068Z,1.70
2018-12-26T15:59:38.811Z,1.60
2018-12-26T16:02:20.059Z,1.60
2018-12-26T16:05:01.490Z,1.60
2018-12-26T16:07:42.342Z,1.60
2018-12-26T16:10:21.923Z,1.60
2018-12-26T16:13:10.335Z,1.60
2018-12-26T16:15:58.819Z,1.60
2018-12-26T16:18:47.224Z,1.60
2018-12-26T16:21:35.655Z,1.60
2018-12-26T16:24:24.071Z,1.60
2018-12-26T16:27:12.514Z,1.60
2018-12-26T16:30:00.975Z,1.60
2018-12-26T16:32:49.395Z,1.60
2018-12-26T16:35:37.855Z,1.60
2018-12-26T16:38:26.270Z,1.60
2018-12-26T16:41:14.716Z,1.50
2018-12-26T16:44:03.131Z,1.50
2018-12-26T16:46:52.205Z,1.50
2018-12-26T16:49:40.706Z,1.50
2018-12-26T16:52:29.139Z,1.50
2018-12-26T16:55:17.659Z,1.50
2018-12-26T16:58:06.110Z,1.50
2018-12-26T17:00:55.220Z,1.50
2018-12-26T17:03:44.595Z,1.50
2018-12-26T17:06:33.079Z,1.50
2018-12-26T17:09:21.516Z,1.50
2018-12-26T17:12:10.001Z,1.50
2018-12-26T17:14:58.410Z,1.60
2018-12-26T17:17:46.846Z,1.60
2018-12-26T17:20:35.258Z,1.60
2018-12-26T17:23:23.615Z,1.60
2018-12-26T17:26:12.035Z,1.60
2018-12-26T17:29:00.467Z,1.60
2018-12-26T17:31:48.879Z,1.50
2018-12-26T17:34:37.311Z,1.50
2018-12-26T17:37:25.733Z,1.50
2018-12-26T17:40:14.234Z,1.50
2018-12-26T17:43:02.671Z,1.50
2018-12-26T17:45:51.084Z,1.50
2018-12-26T17:48:39.510Z,1.60
2018-12-26T17:51:27.951Z,1.60
2018-12-26T17:54:19.079Z,1.50
2018-12-26T17:57:26.572Z,1.50
2018-12-26T18:00:07.343Z,1.50
2018-12-26T18:02:48.143Z,1.50
2018-12-26T18:05:29.152Z,1.50
2018-12-26T18:08:09.751Z,1.50
2018-12-26T18:10:50.511Z,1.50
2018-12-26T18:13:31.227Z,1.50
2018-12-26T18:16:12.604Z,1.50
2018-12-26T18:18:53.463Z,1.50
2018-12-26T18:21:34.343Z,1.50
2018-12-26T18:24:15.486Z,1.50
2018-12-26T18:26:56.835Z,1.50
2018-12-26T18:29:38.388Z,1.50
2018-12-26T18:32:19.008Z,1.50
2018-12-26T18:34:59.674Z,1.50
2018-12-26T18:37:40.347Z,1.50
2018-12-26T18:40:21.835Z,1.50
2018-12-26T18:43:03.111Z,1.50
2018-12-26T18:45:44.449Z,1.50
2018-12-26T18:48:25.499Z,1.50
2018-12-26T18:51:06.604Z,1.50
2018-12-26T18:53:47.195Z,1.50
2018-12-26T18:56:28.063Z,1.50
2018-12-26T18:59:09.565Z,1.50
2018-12-26T19:01:51.147Z,1.50
2018-12-26T19:04:32.559Z,1.50
2018-12-26T19:07:13.388Z,1.50
2018-12-26T19:09:54.895Z,1.50
2018-12-26T19:12:36.436Z,1.50
2018-12-26T19:15:17.099Z,1.50
2018-12-26T19:17:57.690Z,1.50
2018-12-26T19:20:39.095Z,1.50
2018-12-26T19:23:19.767Z,1.50
2018-12-26T19:26:01.229Z,1.50
2018-12-26T19:28:42.667Z,1.60
2018-12-26T19:31:23.534Z,1.50
2018-12-26T19:34:04.939Z,1.50
2018-12-26T19:36:45.560Z,1.60
2018-12-26T19:39:26.147Z,1.60
2018-12-26T19:42:06.926Z,1.60
2018-12-26T19:44:48.270Z,1.60
2018-12-26T19:47:28.935Z,1.60
2018-12-26T19:50:10.476Z,1.60
2018-12-26T19:52:51.454Z,1.60
2018-12-26T19:55:32.979Z,1.60
2018-12-26T19:58:14.368Z,1.60
2018-12-26T20:00:55.631Z,1.60
2018-12-26T20:03:36.478Z,1.60
2018-12-26T20:06:17.203Z,1.50
2018-12-26T20:08:57.947Z,1.50
2018-12-26T20:11:39.507Z,1.50
2018-12-26T20:14:20.790Z,1.50
2018-12-26T20:17:02.273Z,1.50
2018-12-26T20:19:43.232Z,1.50
2018-12-26T20:22:24.411Z,1.50
2018-12-26T20:25:05.086Z,1.50
2018-12-26T20:27:45.905Z,1.50
2018-12-26T20:30:26.895Z,1.50
2018-12-26T20:33:08.271Z,1.50
2018-12-26T20:35:49.707Z,1.50
2018-12-26T20:38:30.600Z,1.50
2018-12-26T20:41:11.372Z,1.40
2018-12-26T20:43:52.412Z,1.40
2018-12-26T20:46:33.868Z,1.40
2018-12-26T20:49:15.073Z,1.40
2018-12-26T20:51:56.459Z,1.40
2018-12-26T20:54:37.898Z,1.40
2018-12-26T20:57:18.911Z,1.40
2018-12-26T21:00:00.347Z,1.40
2018-12-26T21:02:41.749Z,1.40
2018-12-26T21:05:23.225Z,1.40
2018-12-26T21:08:03.891Z,1.40
2018-12-26T21:10:44.579Z,1.50
2018-12-26T21:13:25.960Z,1.50
2018-12-26T21:16:06.801Z,1.50
2018-12-26T21:18:48.172Z,1.60
2018-12-26T21:21:29.635Z,1.60
2018-12-26T21:24:11.055Z,1.60
2018-12-26T21:26:51.998Z,1.50
2018-12-26T21:29:32.830Z,1.50
2018-12-26T21:32:14.234Z,1.50
2018-12-26T21:34:55.092Z,1.50
2018-12-26T21:37:35.759Z,1.50
2018-12-26T21:40:16.583Z,1.50
2018-12-26T21:42:58.017Z,1.50
2018-12-26T21:45:39.535Z,1.50
2018-12-26T21:48:20.362Z,1.40
2018-12-26T21:51:01.823Z,1.40
2018-12-26T21:53:43.290Z,1.40
2018-12-26T21:56:24.371Z,1.40
2018-12-26T21:59:05.488Z,1.40
2018-12-26T22:01:46.919Z,1.40
2018-12-26T22:04:27.582Z,1.40
2018-12-26T22:07:08.212Z,1.50
2018-12-26T22:09:49.067Z,1.40
2018-12-26T22:12:30.322Z,1.40
2018-12-26T22:15:11.774Z,1.40
2018-12-26T22:17:52.595Z,1.50
2018-12-26T22:20:33.892Z,1.40
2018-12-26T22:23:15.394Z,1.40
2018-12-26T22:25:56.190Z,1.40
2018-12-26T22:28:37.547Z,1.50
2018-12-26T22:31:18.363Z,1.50
2018-12-26T22:33:59.827Z,1.50
2018-12-26T22:36:41.335Z,1.50
2018-12-26T22:39:22.480Z,1.50
2018-12-26T22:42:03.159Z,1.40
2018-12-26T22:44:44.704Z,1.40
2018-12-26T22:47:25.295Z,1.40
2018-12-26T22:50:06.751Z,1.50
2018-12-26T22:52:47.443Z,1.40
2018-12-26T22:55:28.211Z,1.50
2018-12-26T22:58:09.599Z,1.50
2018-12-26T23:00:51.086Z,1.50
2018-12-26T23:03:30.712Z,1.50
2018-12-26T23:06:19.145Z,1.50
2018-12-26T23:09:07.779Z,1.50
2018-12-26T23:11:56.215Z,1.50
2018-12-26T23:14:44.622Z,1.50
2018-12-26T23:17:33.459Z,1.50
2018-12-26T23:20:21.883Z,1.40
2018-12-26T23:23:10.319Z,1.40
2018-12-26T23:25:58.742Z,1.40
2018-12-26T23:28:47.218Z,1.40
2018-12-26T23:31:35.588Z,1.40
2018-12-26T23:34:24.027Z,1.40
2018-12-26T23:37:12.451Z,1.40
2018-12-26T23:40:00.874Z,1.40
2018-12-26T23:42:49.311Z,1.40
2018-12-26T23:45:37.740Z,1.40
2018-12-26T23:48:26.174Z,1.50
2018-12-26T23:51:14.587Z,1.40
2018-12-26T23:54:03.026Z,1.40
2018-12-26T23:56:51.442Z,1.50
2018-12-26T23:59:32.554Z,1.50
